JST113 YSSY-NCRG
Flight info
| Callsign | JST113 |
|---|---|
| Flight time | N/A |
| Altitude | 33000 |
| Route | DCT TESAT G595 SARAP/M078F330 G595 MUGEN/M079F350 G595 NIMOD/M077F350 G595 PAVSI DCT BIXIT SAKAL1B |
| Aircraft | A21N/M-SADE3FGHIJ3J4J5RWYZ/LB1D1 |
Departure
| Time | 2026-05-04 00:42 |
|---|---|
| Airport | Sydney Kingsford Smith International Airport (YSSY) |
Arrival
| Time | N/A |
|---|---|
| Airport | Rarotonga International Airport (NCRG) |
| Time | Latitude | Longitude | Altitude | Speed | Heading |
|---|---|---|---|---|---|
| 2026-05-04 00:14 | -33.93995 | 151.16401 | 36 ft | 0 kts | 82° |
| 2026-05-04 00:27 | -33.93996 | 151.16393 | 35 ft | 2 kts | 84° |
| 2026-05-04 00:27 | -33.93997 | 151.16369 | 35 ft | 3 kts | 91° |
| 2026-05-04 00:27 | -33.93995 | 151.16344 | 35 ft | 3 kts | 101° |
| 2026-05-04 00:28 | -33.93990 | 151.16322 | 35 ft | 3 kts | 117° |
| 2026-05-04 00:28 | -33.93979 | 151.16304 | 35 ft | 3 kts | 149° |
| 2026-05-04 00:28 | -33.93968 | 151.16299 | 35 ft | 1 kts | 191° |
| 2026-05-04 00:28 | -33.93967 | 151.16299 | 35 ft | 1 kts | 192° |
| 2026-05-04 00:32 | -33.93971 | 151.16298 | 35 ft | 1 kts | 192° |
| 2026-05-04 00:32 | -33.94000 | 151.16291 | 35 ft | 9 kts | 192° |
| 2026-05-04 00:32 | -33.94062 | 151.16277 | 35 ft | 9 kts | 183° |
| 2026-05-04 00:33 | -33.94128 | 151.16289 | 35 ft | 10 kts | 165° |
| 2026-05-04 00:33 | -33.94258 | 151.16353 | 34 ft | 11 kts | 113° |
| 2026-05-04 00:33 | -33.94247 | 151.16443 | 34 ft | 11 kts | 74° |
| 2026-05-04 00:34 | -33.94226 | 151.16536 | 34 ft | 12 kts | 75° |
| 2026-05-04 00:34 | -33.94203 | 151.16633 | 34 ft | 12 kts | 74° |
| 2026-05-04 00:34 | -33.94179 | 151.16733 | 34 ft | 13 kts | 74° |
| 2026-05-04 00:34 | -33.94154 | 151.16836 | 34 ft | 13 kts | 74° |
| 2026-05-04 00:35 | -33.94129 | 151.16943 | 34 ft | 13 kts | 74° |
| 2026-05-04 00:35 | -33.94103 | 151.17053 | 34 ft | 14 kts | 74° |
| 2026-05-04 00:35 | -33.94076 | 151.17166 | 35 ft | 14 kts | 74° |
| 2026-05-04 00:35 | -33.94112 | 151.17262 | 34 ft | 14 kts | 162° |
| 2026-05-04 00:36 | -33.94211 | 151.17287 | 34 ft | 15 kts | 168° |
| 2026-05-04 00:36 | -33.94313 | 151.17312 | 35 ft | 15 kts | 168° |
| 2026-05-04 00:36 | -33.94417 | 151.17339 | 36 ft | 15 kts | 167° |
| 2026-05-04 00:36 | -33.94522 | 151.17368 | 36 ft | 16 kts | 167° |
| 2026-05-04 00:37 | -33.94629 | 151.17397 | 36 ft | 16 kts | 167° |
| 2026-05-04 00:37 | -33.94738 | 151.17426 | 36 ft | 16 kts | 167° |
| 2026-05-04 00:37 | -33.94848 | 151.17456 | 35 ft | 16 kts | 167° |
| 2026-05-04 00:37 | -33.94959 | 151.17486 | 35 ft | 16 kts | 168° |
| 2026-05-04 00:38 | -33.95075 | 151.17514 | 35 ft | 18 kts | 169° |
| 2026-05-04 00:38 | -33.95199 | 151.17543 | 34 ft | 18 kts | 168° |
| 2026-05-04 00:38 | -33.95325 | 151.17576 | 35 ft | 19 kts | 168° |
| 2026-05-04 00:38 | -33.95452 | 151.17608 | 35 ft | 19 kts | 168° |
| 2026-05-04 00:39 | -33.95579 | 151.17640 | 35 ft | 19 kts | 168° |
| 2026-05-04 00:39 | -33.95704 | 151.17673 | 36 ft | 19 kts | 167° |
| 2026-05-04 00:39 | -33.95832 | 151.17707 | 35 ft | 19 kts | 167° |
| 2026-05-04 00:39 | -33.95961 | 151.17741 | 35 ft | 19 kts | 167° |
| 2026-05-04 00:40 | -33.96090 | 151.17775 | 36 ft | 19 kts | 167° |
| 2026-05-04 00:40 | -33.96217 | 151.17808 | 35 ft | 19 kts | 167° |
| 2026-05-04 00:40 | -33.96346 | 151.17842 | 35 ft | 19 kts | 167° |
| 2026-05-04 00:40 | -33.96437 | 151.17936 | 35 ft | 19 kts | 83° |
| 2026-05-04 00:41 | -33.96373 | 151.18057 | 35 ft | 19 kts | 338° |
| 2026-05-04 00:41 | -33.96243 | 151.18017 | 34 ft | 24 kts | 347° |
| 2026-05-04 00:41 | -33.95828 | 151.17909 | 34 ft | 95 kts | 348° |
| 2026-05-04 00:41 | -33.94975 | 151.17687 | 34 ft | 153 kts | 347° |
| 2026-05-04 00:42 | -33.93831 | 151.17380 | 305 ft | 172 kts | 347° |
| 2026-05-04 00:42 | -33.92667 | 151.17026 | 955 ft | 174 kts | 345° |
| 2026-05-04 00:42 | -33.91436 | 151.16648 | 1371 ft | 192 kts | 346° |
| 2026-05-04 00:42 | -33.90107 | 151.16183 | 1741 ft | 208 kts | 333° |
| 2026-05-04 00:43 | -33.88873 | 151.15122 | 2018 ft | 230 kts | 314° |
| 2026-05-04 00:43 | -33.87772 | 151.13679 | 2614 ft | 236 kts | 312° |
| 2026-05-04 00:43 | -33.86666 | 151.12205 | 3320 ft | 239 kts | 313° |
| 2026-05-04 00:43 | -33.85548 | 151.10732 | 4007 ft | 242 kts | 314° |
| 2026-05-04 00:44 | -33.84367 | 151.09259 | 4635 ft | 248 kts | 322° |
| 2026-05-04 00:44 | -33.82862 | 151.08248 | 5296 ft | 250 kts | 343° |
| 2026-05-04 00:44 | -33.81132 | 151.08009 | 5973 ft | 253 kts | 4° |
| 2026-05-04 00:44 | -33.79435 | 151.08603 | 6644 ft | 259 kts | 26° |
| 2026-05-04 00:45 | -33.78020 | 151.09985 | 7260 ft | 270 kts | 48° |
| 2026-05-04 00:45 | -33.77142 | 151.12021 | 7885 ft | 282 kts | 72° |
| 2026-05-04 00:45 | -33.76995 | 151.14400 | 8501 ft | 292 kts | 92° |
| 2026-05-04 00:45 | -33.77230 | 151.16848 | 9136 ft | 297 kts | 95° |
| 2026-05-04 00:46 | -33.77495 | 151.19334 | 9775 ft | 302 kts | 94° |
| 2026-05-04 00:46 | -33.77736 | 151.21822 | 10328 ft | 309 kts | 94° |
| 2026-05-04 00:46 | -33.77964 | 151.24450 | 10636 ft | 324 kts | 93° |
| 2026-05-04 00:46 | -33.78193 | 151.27221 | 10901 ft | 342 kts | 93° |
| 2026-05-04 00:47 | -33.78430 | 151.30142 | 11146 ft | 359 kts | 93° |
| 2026-05-04 00:47 | -33.78672 | 151.33192 | 11414 ft | 373 kts | 93° |
| 2026-05-04 00:47 | -33.78917 | 151.36334 | 11845 ft | 381 kts | 93° |
| 2026-05-04 00:47 | -33.79163 | 151.39526 | 12461 ft | 384 kts | 93° |
| 2026-05-04 00:48 | -33.79412 | 151.42740 | 13066 ft | 387 kts | 93° |
| 2026-05-04 00:48 | -33.79664 | 151.45979 | 13648 ft | 391 kts | 92° |
| 2026-05-04 00:48 | -33.79915 | 151.49250 | 14181 ft | 394 kts | 93° |
| 2026-05-04 00:48 | -33.80166 | 151.52550 | 14699 ft | 397 kts | 93° |
| 2026-05-04 00:49 | -33.80414 | 151.55871 | 15183 ft | 401 kts | 92° |
| 2026-05-04 00:49 | -33.80662 | 151.59226 | 15667 ft | 404 kts | 93° |
| 2026-05-04 00:49 | -33.80915 | 151.62604 | 16152 ft | 407 kts | 93° |
| 2026-05-04 00:49 | -33.81172 | 151.66008 | 16578 ft | 412 kts | 93° |
| 2026-05-04 00:50 | -33.81426 | 151.69461 | 16991 ft | 416 kts | 92° |
| 2026-05-04 00:50 | -33.81688 | 151.72939 | 17474 ft | 419 kts | 93° |
| 2026-05-04 00:50 | -33.81947 | 151.76401 | 17922 ft | 422 kts | 93° |
| 2026-05-04 00:50 | -33.82206 | 151.79937 | 18342 ft | 426 kts | 92° |
| 2026-05-04 00:51 | -33.82464 | 151.83502 | 18757 ft | 428 kts | 92° |
| 2026-05-04 00:51 | -33.82730 | 151.87081 | 19153 ft | 431 kts | 93° |
| 2026-05-04 00:51 | -33.82992 | 151.90682 | 19534 ft | 434 kts | 92° |
| 2026-05-04 00:51 | -33.83251 | 151.94306 | 19898 ft | 437 kts | 92° |
| 2026-05-04 00:52 | -33.83516 | 151.97971 | 20268 ft | 441 kts | 93° |
| 2026-05-04 00:52 | -33.83786 | 152.01653 | 20647 ft | 444 kts | 93° |
| 2026-05-04 00:52 | -33.84056 | 152.05360 | 21035 ft | 447 kts | 93° |
| 2026-05-04 00:52 | -33.84323 | 152.09092 | 21410 ft | 450 kts | 93° |
| 2026-05-04 00:53 | -33.84588 | 152.12856 | 21785 ft | 453 kts | 92° |
| 2026-05-04 00:53 | -33.84853 | 152.16649 | 22163 ft | 456 kts | 92° |
| 2026-05-04 00:53 | -33.85124 | 152.20464 | 22537 ft | 459 kts | 92° |
| 2026-05-04 00:53 | -33.85386 | 152.24263 | 22903 ft | 462 kts | 92° |
| 2026-05-04 00:54 | -33.85654 | 152.28177 | 23270 ft | 465 kts | 92° |
| 2026-05-04 00:54 | -33.85920 | 152.32022 | 23621 ft | 468 kts | 92° |
| 2026-05-04 00:54 | -33.86196 | 152.35992 | 23914 ft | 471 kts | 92° |
| 2026-05-04 00:54 | -33.86468 | 152.39935 | 24201 ft | 474 kts | 92° |
| 2026-05-04 00:55 | -33.86743 | 152.43905 | 24471 ft | 478 kts | 92° |
| 2026-05-04 00:55 | -33.87018 | 152.47893 | 24743 ft | 480 kts | 92° |
| 2026-05-04 00:55 | -33.87287 | 152.51919 | 25013 ft | 483 kts | 92° |
| 2026-05-04 00:55 | -33.87553 | 152.55963 | 25298 ft | 486 kts | 92° |
| 2026-05-04 00:56 | -33.87817 | 152.59970 | 25577 ft | 488 kts | 92° |
| 2026-05-04 00:56 | -33.88089 | 152.64052 | 25843 ft | 490 kts | 92° |
| 2026-05-04 00:56 | -33.88372 | 152.68160 | 26104 ft | 493 kts | 92° |
| 2026-05-04 00:56 | -33.88647 | 152.72286 | 26350 ft | 496 kts | 92° |
| 2026-05-04 00:57 | -33.88917 | 152.76431 | 26598 ft | 499 kts | 92° |
| 2026-05-04 00:57 | -33.89186 | 152.80609 | 26848 ft | 501 kts | 92° |
| 2026-05-04 00:57 | -33.89459 | 152.84798 | 27088 ft | 504 kts | 92° |
| 2026-05-04 00:57 | -33.89737 | 152.89026 | 27342 ft | 506 kts | 92° |
| 2026-05-04 00:58 | -33.90008 | 152.93256 | 27583 ft | 508 kts | 92° |
| 2026-05-04 00:58 | -33.90279 | 152.97505 | 27799 ft | 511 kts | 92° |
| 2026-05-04 00:58 | -33.90548 | 153.01788 | 28022 ft | 513 kts | 91° |
| 2026-05-04 00:58 | -33.90821 | 153.06090 | 28233 ft | 516 kts | 92° |
| 2026-05-04 00:59 | -33.91080 | 153.10405 | 28442 ft | 517 kts | 89° |
| 2026-05-04 00:59 | -33.91131 | 153.14727 | 28680 ft | 517 kts | 87° |
| 2026-05-04 00:59 | -33.91140 | 153.19067 | 28920 ft | 518 kts | 86° |
| 2026-05-04 00:59 | -33.91138 | 153.23410 | 29119 ft | 520 kts | 86° |
| 2026-05-04 01:00 | -33.91124 | 153.27770 | 29338 ft | 521 kts | 86° |
| 2026-05-04 01:00 | -33.91107 | 153.32143 | 29578 ft | 522 kts | 86° |
| 2026-05-04 01:00 | -33.91090 | 153.36518 | 29828 ft | 523 kts | 86° |
| 2026-05-04 01:00 | -33.91076 | 153.40901 | 30080 ft | 524 kts | 86° |
| 2026-05-04 01:01 | -33.91064 | 153.45285 | 30294 ft | 524 kts | 86° |
| 2026-05-04 01:01 | -33.91049 | 153.49689 | 30491 ft | 525 kts | 86° |
| 2026-05-04 01:01 | -33.91035 | 153.54038 | 30686 ft | 526 kts | 86° |
| 2026-05-04 01:01 | -33.91016 | 153.58454 | 30888 ft | 527 kts | 86° |
| 2026-05-04 01:02 | -33.90991 | 153.62868 | 31094 ft | 527 kts | 86° |
| 2026-05-04 01:02 | -33.90972 | 153.67291 | 31290 ft | 528 kts | 86° |
| 2026-05-04 01:02 | -33.90951 | 153.71720 | 31480 ft | 528 kts | 86° |
| 2026-05-04 01:02 | -33.90933 | 153.76148 | 31672 ft | 529 kts | 86° |
| 2026-05-04 01:03 | -33.90913 | 153.80578 | 31874 ft | 529 kts | 86° |
| 2026-05-04 01:03 | -33.90891 | 153.85005 | 32069 ft | 529 kts | 86° |
| 2026-05-04 01:03 | -33.90863 | 153.89434 | 32259 ft | 529 kts | 86° |
| 2026-05-04 01:03 | -33.90832 | 153.93867 | 32437 ft | 530 kts | 86° |
| 2026-05-04 01:04 | -33.90800 | 153.98304 | 32616 ft | 530 kts | 86° |
| 2026-05-04 01:04 | -33.90760 | 154.02744 | 32790 ft | 530 kts | 85° |
| 2026-05-04 01:04 | -33.90718 | 154.07187 | 32941 ft | 530 kts | 86° |
| 2026-05-04 01:04 | -33.90679 | 154.11572 | 33114 ft | 530 kts | 86° |
| 2026-05-04 01:05 | -33.90639 | 154.16022 | 33197 ft | 532 kts | 86° |
| 2026-05-04 01:05 | -33.90564 | 154.24952 | 33176 ft | 534 kts | 86° |
| 2026-05-04 01:06 | -33.90474 | 154.33893 | 33167 ft | 534 kts | 86° |
| 2026-05-04 01:06 | -33.90384 | 154.42848 | 33170 ft | 534 kts | 86° |
| 2026-05-04 01:07 | -33.90190 | 154.51777 | 33174 ft | 532 kts | 81° |
| 2026-05-04 01:07 | -33.89502 | 154.60631 | 33188 ft | 531 kts | 80° |
| 2026-05-04 01:08 | -33.88748 | 154.69473 | 33179 ft | 530 kts | 80° |
| 2026-05-04 01:08 | -33.88007 | 154.78242 | 33186 ft | 530 kts | 81° |
| 2026-05-04 01:09 | -33.87258 | 154.87081 | 33198 ft | 530 kts | 80° |
| 2026-05-04 01:09 | -33.86464 | 154.95916 | 33200 ft | 530 kts | 80° |
| 2026-05-04 01:10 | -33.85825 | 155.03237 | 33190 ft | 528 kts | 81° |
| 2026-05-04 01:10 | -33.85054 | 155.12076 | 33190 ft | 534 kts | 81° |
| 2026-05-04 01:11 | -33.84278 | 155.20966 | 33194 ft | 533 kts | 81° |
| 2026-05-04 01:11 | -33.83500 | 155.29832 | 33199 ft | 533 kts | 81° |
| 2026-05-04 01:12 | -33.82715 | 155.38687 | 33206 ft | 533 kts | 80° |
| 2026-05-04 01:12 | -33.81912 | 155.47572 | 33206 ft | 533 kts | 80° |
| 2026-05-04 01:13 | -33.81116 | 155.56373 | 33209 ft | 533 kts | 80° |
| 2026-05-04 01:13 | -33.80308 | 155.65228 | 33213 ft | 531 kts | 81° |
| 2026-05-04 01:14 | -33.79486 | 155.74049 | 33215 ft | 531 kts | 80° |
| 2026-05-04 01:14 | -33.78661 | 155.82866 | 33212 ft | 531 kts | 80° |
| 2026-05-04 01:15 | -33.77835 | 155.91743 | 33214 ft | 536 kts | 81° |
| 2026-05-04 01:15 | -33.77002 | 156.00610 | 33221 ft | 533 kts | 81° |
| 2026-05-04 01:16 | -33.76153 | 156.09465 | 33221 ft | 533 kts | 81° |
| 2026-05-04 01:16 | -33.75307 | 156.18318 | 33224 ft | 533 kts | 81° |
| 2026-05-04 01:17 | -33.74460 | 156.27121 | 33225 ft | 533 kts | 81° |
| 2026-05-04 01:17 | -33.73602 | 156.35961 | 33230 ft | 533 kts | 81° |
| 2026-05-04 01:18 | -33.72742 | 156.44802 | 33232 ft | 533 kts | 81° |
| 2026-05-04 01:18 | -33.71868 | 156.53641 | 33230 ft | 533 kts | 81° |
| 2026-05-04 01:19 | -33.70985 | 156.62461 | 33231 ft | 530 kts | 81° |
| 2026-05-04 01:19 | -33.70098 | 156.71271 | 33234 ft | 530 kts | 81° |
| 2026-05-04 01:20 | -33.69212 | 156.80071 | 33240 ft | 530 kts | 81° |
| 2026-05-04 01:20 | -33.68323 | 156.88862 | 33236 ft | 531 kts | 81° |
| 2026-05-04 01:21 | -33.67422 | 156.97650 | 33239 ft | 529 kts | 81° |
| 2026-05-04 01:21 | -33.66516 | 157.06367 | 33245 ft | 529 kts | 81° |
| 2026-05-04 01:22 | -33.65601 | 157.15152 | 33245 ft | 529 kts | 81° |
| 2026-05-04 01:22 | -33.64686 | 157.23915 | 33250 ft | 528 kts | 81° |
| 2026-05-04 01:23 | -33.63766 | 157.32630 | 33252 ft | 526 kts | 81° |
| 2026-05-04 01:23 | -33.62850 | 157.41362 | 33250 ft | 526 kts | 81° |
| 2026-05-04 01:24 | -33.61920 | 157.50033 | 33234 ft | 530 kts | 81° |
| 2026-05-04 01:24 | -33.60975 | 157.58807 | 33250 ft | 528 kts | 81° |
| 2026-05-04 01:25 | -33.60024 | 157.67561 | 33254 ft | 529 kts | 81° |
| 2026-05-04 01:25 | -33.59076 | 157.76307 | 33252 ft | 529 kts | 81° |
| 2026-05-04 01:26 | -33.58118 | 157.85058 | 33251 ft | 528 kts | 81° |
| 2026-05-04 01:26 | -33.57159 | 157.93788 | 33256 ft | 527 kts | 81° |
| 2026-05-04 01:27 | -33.56195 | 158.02449 | 33257 ft | 527 kts | 81° |
| 2026-05-04 01:27 | -33.55219 | 158.11165 | 33263 ft | 527 kts | 81° |
| 2026-05-04 01:28 | -33.54251 | 158.19878 | 33264 ft | 527 kts | 81° |
| 2026-05-04 01:28 | -33.53265 | 158.28568 | 33237 ft | 526 kts | 81° |
| 2026-05-04 01:29 | -33.52259 | 158.37319 | 33254 ft | 531 kts | 81° |
| 2026-05-04 01:29 | -33.51268 | 158.46077 | 33257 ft | 530 kts | 81° |
| 2026-05-04 01:30 | -33.50265 | 158.54838 | 33259 ft | 530 kts | 81° |
| 2026-05-04 01:30 | -33.49252 | 158.63595 | 33260 ft | 530 kts | 81° |
| 2026-05-04 01:31 | -33.48226 | 158.72343 | 33266 ft | 531 kts | 81° |
| 2026-05-04 01:31 | -33.47178 | 158.81096 | 33263 ft | 531 kts | 81° |
| 2026-05-04 01:32 | -33.46137 | 158.89837 | 33269 ft | 529 kts | 81° |
| 2026-05-04 01:32 | -33.45102 | 158.98565 | 33267 ft | 529 kts | 81° |
| 2026-05-04 01:33 | -33.44050 | 159.07282 | 33266 ft | 529 kts | 81° |
| 2026-05-04 01:33 | -33.43005 | 159.16015 | 33254 ft | 531 kts | 81° |
| 2026-05-04 01:34 | -33.41939 | 159.24749 | 33270 ft | 529 kts | 81° |
| 2026-05-04 01:34 | -33.40876 | 159.33418 | 33267 ft | 529 kts | 81° |
| 2026-05-04 01:35 | -33.39817 | 159.42146 | 33274 ft | 529 kts | 81° |
| 2026-05-04 01:35 | -33.38739 | 159.50858 | 33272 ft | 529 kts | 81° |
| 2026-05-04 01:36 | -33.37667 | 159.59564 | 33276 ft | 527 kts | 81° |
| 2026-05-04 01:36 | -33.36584 | 159.68243 | 33275 ft | 527 kts | 81° |
| 2026-05-04 01:37 | -33.35481 | 159.76928 | 33274 ft | 527 kts | 81° |
| 2026-05-04 01:37 | -33.34394 | 159.85553 | 33274 ft | 527 kts | 81° |
| 2026-05-04 01:38 | -33.33337 | 159.94205 | 33280 ft | 524 kts | 82° |
| 2026-05-04 01:38 | -33.32271 | 160.02915 | 33270 ft | 528 kts | 82° |
| 2026-05-04 01:39 | -33.31186 | 160.11599 | 33282 ft | 528 kts | 82° |
| 2026-05-04 01:39 | -33.30131 | 160.20283 | 33290 ft | 528 kts | 82° |
| 2026-05-04 01:40 | -33.29059 | 160.28926 | 33282 ft | 524 kts | 82° |
| 2026-05-04 01:40 | -33.27972 | 160.37547 | 33284 ft | 524 kts | 82° |
| 2026-05-04 01:41 | -33.26880 | 160.46166 | 33285 ft | 524 kts | 82° |
| 2026-05-04 01:41 | -33.25786 | 160.54775 | 33290 ft | 524 kts | 82° |
| 2026-05-04 01:42 | -33.24688 | 160.63350 | 33284 ft | 522 kts | 82° |
| 2026-05-04 01:42 | -33.23589 | 160.71861 | 33284 ft | 522 kts | 82° |
| 2026-05-04 01:43 | -33.22487 | 160.80422 | 33285 ft | 522 kts | 82° |
| 2026-05-04 01:43 | -33.21363 | 160.89014 | 33289 ft | 524 kts | 82° |
| 2026-05-04 01:44 | -33.20242 | 160.97571 | 33290 ft | 521 kts | 82° |
| 2026-05-04 01:44 | -33.19111 | 161.06130 | 33287 ft | 521 kts | 82° |
| 2026-05-04 01:45 | -33.17979 | 161.14671 | 33286 ft | 521 kts | 82° |
| 2026-05-04 01:45 | -33.16275 | 161.27463 | 33287 ft | 515 kts | 82° |
| 2026-05-04 01:46 | -33.15141 | 161.35920 | 33287 ft | 516 kts | 82° |
| 2026-05-04 01:46 | -33.13991 | 161.44376 | 33289 ft | 516 kts | 82° |
| 2026-05-04 01:47 | -33.12849 | 161.52830 | 33286 ft | 516 kts | 82° |
| 2026-05-04 01:47 | -33.11698 | 161.61272 | 33288 ft | 514 kts | 82° |
| 2026-05-04 01:48 | -33.10522 | 161.69687 | 33284 ft | 514 kts | 82° |
| 2026-05-04 01:48 | -33.09348 | 161.78143 | 33279 ft | 518 kts | 82° |
| 2026-05-04 01:49 | -33.08368 | 161.85187 | 33287 ft | 518 kts | 82° |
| 2026-05-04 01:49 | -33.06994 | 161.95084 | 33286 ft | 518 kts | 82° |
| 2026-05-04 01:50 | -33.06011 | 162.02126 | 33287 ft | 518 kts | 82° |
| 2026-05-04 01:50 | -33.04830 | 162.10597 | 33289 ft | 518 kts | 82° |
| 2026-05-04 01:51 | -33.03630 | 162.19050 | 33292 ft | 518 kts | 82° |
| 2026-05-04 01:51 | -33.02427 | 162.27512 | 33302 ft | 516 kts | 82° |
| 2026-05-04 01:52 | -33.01223 | 162.35921 | 33292 ft | 515 kts | 82° |
| 2026-05-04 01:52 | -33.00016 | 162.44336 | 33292 ft | 515 kts | 82° |
| 2026-05-04 01:53 | -32.98801 | 162.52763 | 33288 ft | 515 kts | 82° |
| 2026-05-04 01:53 | -32.97584 | 162.61166 | 33283 ft | 516 kts | 82° |
| 2026-05-04 01:54 | -32.96355 | 162.69591 | 33291 ft | 516 kts | 82° |
| 2026-05-04 01:54 | -32.95130 | 162.78021 | 33291 ft | 516 kts | 82° |
| 2026-05-04 01:55 | -32.93902 | 162.86399 | 33293 ft | 517 kts | 82° |
| 2026-05-04 01:55 | -32.92653 | 162.94827 | 33292 ft | 517 kts | 82° |
| 2026-05-04 01:56 | -32.91519 | 163.03256 | 33293 ft | 514 kts | 85° |
| 2026-05-04 01:56 | -32.90641 | 163.11700 | 33294 ft | 514 kts | 85° |
| 2026-05-04 01:57 | -32.89748 | 163.20148 | 33298 ft | 514 kts | 85° |
| 2026-05-04 01:57 | -32.88847 | 163.28588 | 33301 ft | 514 kts | 85° |
| 2026-05-04 01:58 | -32.87939 | 163.37004 | 33293 ft | 510 kts | 85° |
| 2026-05-04 01:58 | -32.87040 | 163.45341 | 33299 ft | 511 kts | 85° |
| 2026-05-04 01:59 | -32.86126 | 163.53723 | 33301 ft | 511 kts | 85° |
| 2026-05-04 01:59 | -32.85213 | 163.62124 | 33290 ft | 514 kts | 85° |
| 2026-05-04 02:00 | -32.84275 | 163.70535 | 33307 ft | 511 kts | 85° |
| 2026-05-04 02:00 | -32.83351 | 163.78912 | 33306 ft | 511 kts | 85° |
| 2026-05-04 02:01 | -32.82415 | 163.87289 | 33303 ft | 511 kts | 85° |
| 2026-05-04 02:01 | -32.81466 | 163.95659 | 33303 ft | 511 kts | 85° |
| 2026-05-04 02:02 | -32.80519 | 164.04013 | 33320 ft | 506 kts | 84° |
| 2026-05-04 02:02 | -32.79576 | 164.12271 | 33309 ft | 504 kts | 84° |
| 2026-05-04 02:03 | -32.78633 | 164.20528 | 33308 ft | 504 kts | 84° |
| 2026-05-04 02:03 | -32.77680 | 164.28784 | 33308 ft | 504 kts | 84° |
| 2026-05-04 02:04 | -32.76720 | 164.37037 | 33324 ft | 503 kts | 84° |
| 2026-05-04 02:04 | -32.75766 | 164.45236 | 33315 ft | 501 kts | 84° |
| 2026-05-04 02:05 | -32.74805 | 164.53437 | 33312 ft | 501 kts | 84° |
| 2026-05-04 02:05 | -32.73844 | 164.61577 | 33311 ft | 501 kts | 84° |
| 2026-05-04 02:06 | -32.72870 | 164.69797 | 33304 ft | 504 kts | 84° |
| 2026-05-04 02:06 | -32.71883 | 164.78041 | 33313 ft | 503 kts | 84° |
| 2026-05-04 02:07 | -32.70899 | 164.86262 | 33317 ft | 503 kts | 84° |
| 2026-05-04 02:07 | -32.69909 | 164.94484 | 33320 ft | 503 kts | 84° |
| 2026-05-04 02:08 | -32.68912 | 165.02703 | 33315 ft | 503 kts | 84° |
| 2026-05-04 02:08 | -32.67903 | 165.10907 | 33333 ft | 498 kts | 84° |
| 2026-05-04 02:09 | -32.66906 | 165.19023 | 33319 ft | 497 kts | 84° |
| 2026-05-04 02:09 | -32.65909 | 165.27149 | 33321 ft | 497 kts | 84° |
| 2026-05-04 02:10 | -32.64902 | 165.35270 | 33323 ft | 498 kts | 84° |
| 2026-05-04 02:10 | -32.63888 | 165.43395 | 33325 ft | 497 kts | 84° |
| 2026-05-04 02:11 | -32.62877 | 165.51462 | 33325 ft | 498 kts | 84° |
| 2026-05-04 02:11 | -32.61852 | 165.59581 | 33327 ft | 498 kts | 84° |
| 2026-05-04 02:12 | -32.60824 | 165.67705 | 33329 ft | 498 kts | 84° |
| 2026-05-04 02:12 | -32.59789 | 165.75816 | 33328 ft | 498 kts | 84° |
| 2026-05-04 02:13 | -32.58753 | 165.83900 | 33339 ft | 493 kts | 83° |
| 2026-05-04 02:13 | -32.57718 | 165.91933 | 33330 ft | 493 kts | 83° |
| 2026-05-04 02:14 | -32.56675 | 165.99985 | 33329 ft | 493 kts | 83° |
| 2026-05-04 02:14 | -32.55633 | 166.08022 | 33327 ft | 493 kts | 83° |
| 2026-05-04 02:15 | -32.54587 | 166.16004 | 33340 ft | 493 kts | 83° |
| 2026-05-04 02:15 | -32.53534 | 166.24012 | 33335 ft | 492 kts | 83° |
| 2026-05-04 02:16 | -32.52478 | 166.32020 | 33329 ft | 492 kts | 83° |
| 2026-05-04 02:16 | -32.51413 | 166.40033 | 33329 ft | 492 kts | 83° |
| 2026-05-04 02:17 | -32.50344 | 166.48029 | 33333 ft | 492 kts | 83° |
| 2026-05-04 02:17 | -32.49274 | 166.56034 | 33344 ft | 490 kts | 83° |
| 2026-05-04 02:18 | -32.48199 | 166.64012 | 33327 ft | 490 kts | 83° |
| 2026-05-04 02:18 | -32.47116 | 166.71989 | 33341 ft | 490 kts | 83° |
| 2026-05-04 02:19 | -32.46028 | 166.79964 | 33340 ft | 490 kts | 83° |
| 2026-05-04 02:19 | -32.44938 | 166.87956 | 33348 ft | 492 kts | 83° |
| 2026-05-04 02:20 | -32.43839 | 166.95943 | 33337 ft | 491 kts | 83° |
| 2026-05-04 02:20 | -32.42738 | 167.03912 | 33334 ft | 491 kts | 83° |
| 2026-05-04 02:21 | -32.41631 | 167.11889 | 33341 ft | 491 kts | 83° |
| 2026-05-04 02:21 | -32.40522 | 167.19857 | 33337 ft | 491 kts | 83° |
| 2026-05-04 02:22 | -32.39400 | 167.27832 | 33345 ft | 491 kts | 83° |
| 2026-05-04 02:22 | -32.38277 | 167.35794 | 33342 ft | 490 kts | 83° |
| 2026-05-04 02:23 | -32.37155 | 167.43748 | 33340 ft | 490 kts | 83° |
| 2026-05-04 02:23 | -32.36035 | 167.51707 | 33339 ft | 490 kts | 83° |
| 2026-05-04 02:24 | -32.34899 | 167.59663 | 33364 ft | 490 kts | 83° |
| 2026-05-04 02:24 | -32.33756 | 167.67603 | 33347 ft | 490 kts | 83° |
| 2026-05-04 02:25 | -32.32603 | 167.75539 | 33345 ft | 490 kts | 83° |
| 2026-05-04 02:25 | -32.31458 | 167.83487 | 33344 ft | 490 kts | 83° |
| 2026-05-04 02:26 | -32.30313 | 167.91374 | 33326 ft | 491 kts | 83° |
| 2026-05-04 02:26 | -32.29146 | 167.99328 | 33350 ft | 490 kts | 83° |
| 2026-05-04 02:27 | -32.27979 | 168.07266 | 33346 ft | 490 kts | 83° |
| 2026-05-04 02:27 | -32.26817 | 168.15199 | 33341 ft | 490 kts | 83° |
| 2026-05-04 02:28 | -32.25638 | 168.23129 | 33341 ft | 490 kts | 82° |
| 2026-05-04 02:28 | -32.24457 | 168.31058 | 33343 ft | 490 kts | 82° |
| 2026-05-04 02:29 | -32.23286 | 168.38941 | 33344 ft | 489 kts | 82° |
| 2026-05-04 02:29 | -32.22100 | 168.46862 | 33347 ft | 489 kts | 82° |
| 2026-05-04 02:30 | -32.20903 | 168.54775 | 33348 ft | 489 kts | 82° |
| 2026-05-04 02:30 | -32.19700 | 168.62682 | 33342 ft | 489 kts | 82° |
| 2026-05-04 02:31 | -32.18702 | 168.69260 | 33352 ft | 489 kts | 82° |
| 2026-05-04 02:31 | -32.17494 | 168.77153 | 33346 ft | 489 kts | 82° |
| 2026-05-04 02:32 | -32.16284 | 168.85057 | 33345 ft | 489 kts | 82° |
| 2026-05-04 02:32 | -32.15070 | 168.92945 | 33346 ft | 489 kts | 82° |
| 2026-05-04 02:33 | -32.13846 | 169.00836 | 33328 ft | 489 kts | 82° |
| 2026-05-04 02:33 | -32.12624 | 169.08749 | 33341 ft | 490 kts | 82° |
| 2026-05-04 02:34 | -32.11395 | 169.16648 | 33344 ft | 490 kts | 82° |
| 2026-05-04 02:34 | -32.10157 | 169.24502 | 33343 ft | 490 kts | 82° |
| 2026-05-04 02:35 | -32.08916 | 169.32399 | 33350 ft | 490 kts | 82° |
| 2026-05-04 02:35 | -32.07667 | 169.40301 | 33351 ft | 490 kts | 82° |
| 2026-05-04 02:36 | -32.06419 | 169.48179 | 33349 ft | 487 kts | 81° |
| 2026-05-04 02:36 | -32.05162 | 169.56073 | 33347 ft | 487 kts | 81° |
| 2026-05-04 02:37 | -32.03916 | 169.63855 | 33348 ft | 487 kts | 81° |
| 2026-05-04 02:37 | -32.02658 | 169.71691 | 33348 ft | 486 kts | 81° |
| 2026-05-04 02:38 | -32.01395 | 169.79525 | 33352 ft | 486 kts | 81° |
| 2026-05-04 02:38 | -32.00134 | 169.87320 | 33355 ft | 483 kts | 80° |
| 2026-05-04 02:39 | -31.98871 | 169.95104 | 33347 ft | 483 kts | 80° |
| 2026-05-04 02:39 | -31.97603 | 170.02871 | 33348 ft | 484 kts | 80° |
| 2026-05-04 02:40 | -31.96329 | 170.10646 | 33348 ft | 484 kts | 80° |
| 2026-05-04 02:40 | -31.95052 | 170.18420 | 33352 ft | 483 kts | 79° |
| 2026-05-04 02:41 | -31.93773 | 170.26170 | 33353 ft | 482 kts | 79° |
| 2026-05-04 02:41 | -31.92499 | 170.33885 | 33352 ft | 481 kts | 79° |
| 2026-05-04 02:42 | -31.91219 | 170.41642 | 33342 ft | 483 kts | 79° |
| 2026-05-04 02:42 | -31.89919 | 170.49394 | 33343 ft | 482 kts | 79° |
| 2026-05-04 02:43 | -31.88614 | 170.57135 | 33350 ft | 480 kts | 77° |
| 2026-05-04 02:43 | -31.87313 | 170.64837 | 33358 ft | 481 kts | 77° |
| 2026-05-04 02:44 | -31.85999 | 170.72533 | 33358 ft | 480 kts | 77° |
| 2026-05-04 02:44 | -31.84692 | 170.80211 | 33350 ft | 478 kts | 77° |
| 2026-05-04 02:45 | -31.83386 | 170.87900 | 33343 ft | 479 kts | 77° |
| 2026-05-04 02:45 | -31.82067 | 170.95573 | 33348 ft | 476 kts | 76° |
| 2026-05-04 02:46 | -31.80757 | 171.03212 | 33346 ft | 478 kts | 77° |
| 2026-05-04 02:46 | -31.79442 | 171.10850 | 33351 ft | 476 kts | 76° |
| 2026-05-04 02:47 | -31.78118 | 171.18475 | 33349 ft | 476 kts | 76° |
| 2026-05-04 02:47 | -31.76792 | 171.26102 | 33337 ft | 477 kts | 77° |
| 2026-05-04 02:48 | -31.75464 | 171.33720 | 33346 ft | 475 kts | 76° |
| 2026-05-04 02:48 | -31.74128 | 171.41340 | 33358 ft | 475 kts | 76° |
| 2026-05-04 02:49 | -31.72801 | 171.48882 | 33361 ft | 475 kts | 76° |
| 2026-05-04 02:49 | -31.71466 | 171.56474 | 33363 ft | 475 kts | 76° |
| 2026-05-04 02:50 | -31.70126 | 171.64069 | 33363 ft | 475 kts | 76° |
| 2026-05-04 02:50 | -31.68778 | 171.71663 | 33358 ft | 473 kts | 75° |
| 2026-05-04 02:51 | -31.67426 | 171.79232 | 33358 ft | 473 kts | 75° |
| 2026-05-04 02:51 | -31.66068 | 171.86809 | 33358 ft | 473 kts | 75° |
| 2026-05-04 02:52 | -31.64717 | 171.94332 | 33357 ft | 473 kts | 75° |
| 2026-05-04 02:52 | -31.63356 | 172.01890 | 33357 ft | 473 kts | 75° |
| 2026-05-04 02:53 | -31.61988 | 172.09448 | 33358 ft | 473 kts | 75° |
| 2026-05-04 02:53 | -31.60620 | 172.17014 | 33352 ft | 474 kts | 75° |
| 2026-05-04 02:54 | -31.59251 | 172.24570 | 33351 ft | 474 kts | 75° |
| 2026-05-04 02:54 | -31.57864 | 172.32120 | 33355 ft | 473 kts | 74° |
| 2026-05-04 02:55 | -31.55795 | 172.43405 | 33347 ft | 470 kts | 74° |
| 2026-05-04 02:56 | -31.54405 | 172.50911 | 33357 ft | 470 kts | 74° |
| 2026-05-04 02:56 | -31.53017 | 172.58402 | 33358 ft | 471 kts | 74° |
| 2026-05-04 02:57 | -31.51632 | 172.65901 | 33350 ft | 471 kts | 74° |
| 2026-05-04 02:57 | -31.50242 | 172.73345 | 33350 ft | 470 kts | 73° |
| 2026-05-04 02:58 | -31.48838 | 172.80833 | 33352 ft | 470 kts | 73° |
| 2026-05-04 02:58 | -31.47426 | 172.88369 | 33354 ft | 470 kts | 73° |
| 2026-05-04 02:59 | -31.46030 | 172.95801 | 33354 ft | 470 kts | 73° |
| 2026-05-04 02:59 | -31.44624 | 173.03280 | 33355 ft | 470 kts | 73° |
| 2026-05-04 03:00 | -31.43206 | 173.10757 | 33347 ft | 470 kts | 73° |
| 2026-05-04 03:00 | -31.41787 | 173.18224 | 33338 ft | 469 kts | 74° |
| 2026-05-04 03:01 | -31.40374 | 173.25632 | 33342 ft | 469 kts | 74° |
| 2026-05-04 03:01 | -31.38937 | 173.33128 | 33343 ft | 469 kts | 74° |
| 2026-05-04 03:02 | -31.37509 | 173.40572 | 33343 ft | 469 kts | 73° |
| 2026-05-04 03:02 | -31.36070 | 173.48014 | 33346 ft | 469 kts | 73° |
| 2026-05-04 03:03 | -31.34627 | 173.55471 | 33331 ft | 471 kts | 73° |
| 2026-05-04 03:03 | -31.33178 | 173.62937 | 33346 ft | 470 kts | 73° |
| 2026-05-04 03:04 | -31.31734 | 173.70352 | 33348 ft | 470 kts | 73° |
| 2026-05-04 03:04 | -31.30277 | 173.77813 | 33350 ft | 470 kts | 73° |
| 2026-05-04 03:05 | -31.28822 | 173.85283 | 33350 ft | 470 kts | 73° |
| 2026-05-04 03:05 | -31.27361 | 173.92737 | 33346 ft | 470 kts | 74° |
| 2026-05-04 03:06 | -31.25893 | 174.00187 | 33348 ft | 471 kts | 74° |
| 2026-05-04 03:06 | -31.24423 | 174.07601 | 33348 ft | 471 kts | 74° |
| 2026-05-04 03:07 | -31.22950 | 174.15048 | 33348 ft | 471 kts | 73° |
| 2026-05-04 03:07 | -31.21474 | 174.22497 | 33347 ft | 471 kts | 73° |
| 2026-05-04 03:08 | -31.19981 | 174.29936 | 33346 ft | 471 kts | 73° |
| 2026-05-04 03:08 | -31.18474 | 174.37417 | 33352 ft | 473 kts | 74° |
| 2026-05-04 03:09 | -31.16973 | 174.44896 | 33349 ft | 472 kts | 73° |
| 2026-05-04 03:09 | -31.15473 | 174.52365 | 33348 ft | 472 kts | 74° |
| 2026-05-04 03:10 | -31.13961 | 174.59823 | 33347 ft | 472 kts | 73° |
| 2026-05-04 03:10 | -31.12442 | 174.67273 | 33336 ft | 471 kts | 73° |
| 2026-05-04 03:11 | -31.10926 | 174.74722 | 33346 ft | 472 kts | 74° |
| 2026-05-04 03:11 | -31.09405 | 174.82177 | 33353 ft | 472 kts | 73° |
| 2026-05-04 03:12 | -31.08133 | 174.88375 | 33345 ft | 472 kts | 73° |
| 2026-05-04 03:12 | -31.06358 | 174.97022 | 33345 ft | 472 kts | 73° |
| 2026-05-04 03:13 | -31.04823 | 175.04469 | 33346 ft | 472 kts | 73° |
| 2026-05-04 03:13 | -31.03533 | 175.10725 | 33347 ft | 474 kts | 74° |
| 2026-05-04 03:14 | -31.01996 | 175.18151 | 33348 ft | 474 kts | 74° |
| 2026-05-04 03:14 | -31.00441 | 175.25622 | 33347 ft | 474 kts | 74° |
| 2026-05-04 03:15 | -30.98879 | 175.33088 | 33349 ft | 474 kts | 73° |
| 2026-05-04 03:15 | -30.97319 | 175.40548 | 33347 ft | 474 kts | 74° |
| 2026-05-04 03:16 | -30.95754 | 175.48018 | 33347 ft | 475 kts | 74° |
| 2026-05-04 03:16 | -30.94182 | 175.55492 | 33348 ft | 475 kts | 74° |
| 2026-05-04 03:17 | -30.92604 | 175.62967 | 33354 ft | 475 kts | 74° |
| 2026-05-04 03:17 | -30.91023 | 175.70428 | 33352 ft | 475 kts | 74° |
| 2026-05-04 03:18 | -30.89391 | 175.77882 | 33352 ft | 474 kts | 72° |
| 2026-05-04 03:18 | -30.87671 | 175.85314 | 33341 ft | 475 kts | 73° |
| 2026-05-04 03:19 | -30.85956 | 175.92753 | 33352 ft | 476 kts | 73° |
| 2026-05-04 03:19 | -30.84265 | 176.00153 | 33348 ft | 476 kts | 73° |
| 2026-05-04 03:20 | -30.82553 | 176.07587 | 33352 ft | 475 kts | 73° |
| 2026-05-04 03:20 | -30.80830 | 176.15026 | 33351 ft | 476 kts | 73° |
| 2026-05-04 03:21 | -30.79113 | 176.22454 | 33350 ft | 476 kts | 73° |
| 2026-05-04 03:21 | -30.77388 | 176.29874 | 33355 ft | 475 kts | 73° |
| 2026-05-04 03:22 | -30.75654 | 176.37310 | 33354 ft | 475 kts | 73° |
| 2026-05-04 03:22 | -30.73918 | 176.44733 | 33354 ft | 475 kts | 73° |
| 2026-05-04 03:23 | -30.72188 | 176.52113 | 33359 ft | 475 kts | 73° |
| 2026-05-04 03:23 | -30.70442 | 176.59526 | 33358 ft | 475 kts | 73° |
| 2026-05-04 03:24 | -30.68685 | 176.66931 | 33350 ft | 475 kts | 73° |
| 2026-05-04 03:24 | -30.66928 | 176.74338 | 33352 ft | 475 kts | 73° |
| 2026-05-04 03:25 | -30.65175 | 176.81747 | 33352 ft | 475 kts | 73° |
| 2026-05-04 03:25 | -30.63411 | 176.89152 | 33351 ft | 475 kts | 72° |
| 2026-05-04 03:26 | -30.61646 | 176.96556 | 33349 ft | 475 kts | 72° |
| 2026-05-04 03:26 | -30.59884 | 177.03937 | 33355 ft | 475 kts | 73° |
| 2026-05-04 03:27 | -30.58110 | 177.11334 | 33349 ft | 475 kts | 72° |
| 2026-05-04 03:27 | -30.56335 | 177.18717 | 33349 ft | 475 kts | 72° |
| 2026-05-04 03:28 | -30.54559 | 177.26087 | 33355 ft | 475 kts | 72° |
| 2026-05-04 03:28 | -30.52786 | 177.33427 | 33357 ft | 475 kts | 73° |
| 2026-05-04 03:29 | -30.50994 | 177.40825 | 33363 ft | 476 kts | 73° |
| 2026-05-04 03:29 | -30.49194 | 177.48222 | 33354 ft | 476 kts | 73° |
| 2026-05-04 03:30 | -30.47388 | 177.55622 | 33349 ft | 477 kts | 73° |
| 2026-05-04 03:30 | -30.45583 | 177.63008 | 33346 ft | 476 kts | 73° |
| 2026-05-04 03:31 | -30.43776 | 177.70395 | 33348 ft | 475 kts | 73° |
| 2026-05-04 03:31 | -30.41972 | 177.77748 | 33348 ft | 473 kts | 72° |
| 2026-05-04 03:32 | -30.40168 | 177.85070 | 33346 ft | 474 kts | 72° |
| 2026-05-04 03:32 | -30.38360 | 177.92377 | 33355 ft | 473 kts | 73° |
| 2026-05-04 03:33 | -30.36533 | 177.99748 | 33341 ft | 479 kts | 73° |
| 2026-05-04 03:33 | -30.34701 | 178.07154 | 33345 ft | 479 kts | 73° |
| 2026-05-04 03:34 | -30.32859 | 178.14555 | 33344 ft | 477 kts | 73° |
| 2026-05-04 03:34 | -30.31027 | 178.21885 | 33343 ft | 477 kts | 72° |
| 2026-05-04 03:35 | -30.29176 | 178.29267 | 33341 ft | 478 kts | 72° |
| 2026-05-04 03:35 | -30.27325 | 178.36653 | 33341 ft | 478 kts | 72° |
| 2026-05-04 03:36 | -30.25468 | 178.44043 | 33344 ft | 477 kts | 72° |
| 2026-05-04 03:36 | -30.23619 | 178.51396 | 33350 ft | 471 kts | 71° |
| 2026-05-04 03:37 | -30.21788 | 178.58653 | 33341 ft | 471 kts | 72° |
| 2026-05-04 03:37 | -30.19946 | 178.65895 | 33342 ft | 470 kts | 72° |
| 2026-05-04 03:38 | -30.18102 | 178.73128 | 33345 ft | 469 kts | 71° |
| 2026-05-04 03:38 | -30.16275 | 178.80328 | 33175 ft | 469 kts | 71° |
| 2026-05-04 03:38 | -30.15345 | 178.83984 | 33055 ft | 468 kts | 71° |
| 2026-05-04 03:39 | -30.14433 | 178.87548 | 32927 ft | 467 kts | 71° |
| 2026-05-04 03:39 | -30.13513 | 178.91148 | 32802 ft | 469 kts | 70° |
| 2026-05-04 03:39 | -30.12579 | 178.94777 | 32679 ft | 471 kts | 71° |
| 2026-05-04 03:39 | -30.11646 | 178.98412 | 32565 ft | 473 kts | 71° |
| 2026-05-04 03:40 | -30.10713 | 179.02054 | 32428 ft | 472 kts | 71° |
| 2026-05-04 03:40 | -30.09772 | 179.05710 | 32301 ft | 475 kts | 72° |
| 2026-05-04 03:40 | -30.08828 | 179.09370 | 32188 ft | 477 kts | 71° |
| 2026-05-04 03:40 | -30.07886 | 179.13027 | 32067 ft | 475 kts | 72° |
| 2026-05-04 03:41 | -30.06939 | 179.16695 | 31946 ft | 476 kts | 72° |
| 2026-05-04 03:41 | -30.05999 | 179.20350 | 31832 ft | 476 kts | 71° |
| 2026-05-04 03:41 | -30.05056 | 179.24002 | 31701 ft | 474 kts | 71° |
| 2026-05-04 03:41 | -30.04112 | 179.27646 | 31588 ft | 473 kts | 72° |
| 2026-05-04 03:42 | -30.03170 | 179.31284 | 31469 ft | 473 kts | 71° |
| 2026-05-04 03:42 | -30.02223 | 179.34911 | 31348 ft | 470 kts | 71° |
| 2026-05-04 03:42 | -30.01281 | 179.38530 | 31313 ft | 471 kts | 71° |
| 2026-05-04 03:43 | -29.99407 | 179.45737 | 31330 ft | 471 kts | 72° |
| 2026-05-04 03:43 | -29.97506 | 179.52979 | 31341 ft | 471 kts | 71° |
| 2026-05-04 03:44 | -29.95609 | 179.60206 | 31347 ft | 472 kts | 72° |
| 2026-05-04 03:44 | -29.93702 | 179.67476 | 31338 ft | 476 kts | 72° |
| 2026-05-04 03:45 | -29.91782 | 179.74787 | 31346 ft | 475 kts | 72° |
| 2026-05-04 03:45 | -29.89852 | 179.82116 | 31338 ft | 479 kts | 72° |
| 2026-05-04 03:46 | -29.87910 | 179.89436 | 31339 ft | 479 kts | 72° |
| 2026-05-04 03:46 | -29.85985 | 179.96704 | 31277 ft | 475 kts | 72° |
| 2026-05-04 03:47 | -29.84055 | -179.96004 | 31071 ft | 479 kts | 71° |
| 2026-05-04 03:47 | -29.83073 | -179.92341 | 30968 ft | 477 kts | 72° |
| 2026-05-04 03:47 | -29.82101 | -179.88702 | 30844 ft | 475 kts | 72° |
| 2026-05-04 03:47 | -29.81126 | -179.85070 | 30723 ft | 476 kts | 72° |
| 2026-05-04 03:48 | -29.80150 | -179.81432 | 30598 ft | 473 kts | 72° |
| 2026-05-04 03:48 | -29.79188 | -179.77821 | 30495 ft | 471 kts | 72° |
| 2026-05-04 03:48 | -29.78223 | -179.74208 | 30376 ft | 471 kts | 72° |
| 2026-05-04 03:48 | -29.77257 | -179.70600 | 30245 ft | 469 kts | 72° |
| 2026-05-04 03:49 | -29.76296 | -179.67014 | 30108 ft | 470 kts | 72° |
| 2026-05-04 03:49 | -29.75330 | -179.63425 | 29971 ft | 470 kts | 72° |
| 2026-05-04 03:49 | -29.74360 | -179.59825 | 29836 ft | 467 kts | 72° |
| 2026-05-04 03:49 | -29.73397 | -179.56251 | 29707 ft | 469 kts | 71° |
| 2026-05-04 03:50 | -29.72427 | -179.52663 | 29562 ft | 469 kts | 72° |
| 2026-05-04 03:50 | -29.71459 | -179.49076 | 29434 ft | 467 kts | 72° |
| 2026-05-04 03:50 | -29.70505 | -179.45548 | 29310 ft | 468 kts | 71° |
| 2026-05-04 03:51 | -29.68551 | -179.38347 | 29314 ft | 467 kts | 72° |
| 2026-05-04 03:51 | -29.66608 | -179.31183 | 29330 ft | 469 kts | 72° |
| 2026-05-04 03:52 | -29.64673 | -179.24089 | 29329 ft | 471 kts | 71° |
| 2026-05-04 03:52 | -29.62711 | -179.16894 | 29327 ft | 472 kts | 72° |
| 2026-05-04 03:53 | -29.60742 | -179.09643 | 29340 ft | 474 kts | 72° |
| 2026-05-04 03:53 | -29.58764 | -179.02444 | 29323 ft | 475 kts | 71° |
| 2026-05-04 03:54 | -29.56776 | -178.95237 | 29325 ft | 472 kts | 72° |
| 2026-05-04 03:54 | -29.54789 | -178.88013 | 29331 ft | 473 kts | 72° |
| 2026-05-04 03:55 | -29.52789 | -178.80785 | 29322 ft | 478 kts | 71° |
| 2026-05-04 03:55 | -29.50782 | -178.73550 | 29313 ft | 475 kts | 71° |
| 2026-05-04 03:56 | -29.48779 | -178.66333 | 29310 ft | 472 kts | 71° |
| 2026-05-04 03:56 | -29.46770 | -178.59106 | 29322 ft | 476 kts | 71° |
| 2026-05-04 03:57 | -29.45105 | -178.53095 | 29322 ft | 475 kts | 71° |
| 2026-05-04 03:57 | -29.43082 | -178.45851 | 29325 ft | 475 kts | 71° |
| 2026-05-04 03:58 | -29.40028 | -178.34967 | 29322 ft | 475 kts | 71° |
| 2026-05-04 03:58 | -29.37983 | -178.27686 | 29328 ft | 478 kts | 71° |
| 2026-05-04 03:59 | -29.35946 | -178.20448 | 29323 ft | 480 kts | 71° |
| 2026-05-04 03:59 | -29.33898 | -178.13192 | 29315 ft | 477 kts | 71° |
| 2026-05-04 04:00 | -29.31843 | -178.05922 | 29318 ft | 480 kts | 71° |
| 2026-05-04 04:00 | -29.29782 | -177.98663 | 29310 ft | 480 kts | 71° |
| 2026-05-04 04:01 | -29.27718 | -177.91399 | 29311 ft | 479 kts | 71° |
| 2026-05-04 04:01 | -29.25645 | -177.84132 | 29316 ft | 478 kts | 71° |
| 2026-05-04 04:02 | -29.23604 | -177.76927 | 29314 ft | 480 kts | 71° |
| 2026-05-04 04:02 | -29.21523 | -177.69697 | 29291 ft | 479 kts | 71° |
| 2026-05-04 04:03 | -29.19432 | -177.62412 | 29307 ft | 478 kts | 71° |
| 2026-05-04 04:03 | -29.17342 | -177.55117 | 29303 ft | 482 kts | 71° |
| 2026-05-04 04:04 | -29.15257 | -177.47850 | 29306 ft | 482 kts | 71° |
| 2026-05-04 04:04 | -29.13168 | -177.40575 | 29308 ft | 480 kts | 71° |
| 2026-05-04 04:05 | -29.11061 | -177.33307 | 29313 ft | 481 kts | 71° |
| 2026-05-04 04:05 | -29.08956 | -177.26035 | 29294 ft | 485 kts | 71° |
| 2026-05-04 04:06 | -29.06850 | -177.18779 | 29293 ft | 483 kts | 71° |
| 2026-05-04 04:06 | -29.04711 | -177.11473 | 29300 ft | 482 kts | 71° |
| 2026-05-04 04:07 | -29.02578 | -177.04185 | 29303 ft | 484 kts | 71° |
| 2026-05-04 04:07 | -29.00447 | -176.96908 | 29295 ft | 484 kts | 70° |
| 2026-05-04 04:08 | -28.98295 | -176.89614 | 29303 ft | 484 kts | 71° |
| 2026-05-04 04:08 | -28.96143 | -176.82309 | 29291 ft | 485 kts | 71° |
| 2026-05-04 04:09 | -28.94005 | -176.75027 | 29294 ft | 485 kts | 71° |
| 2026-05-04 04:09 | -28.91843 | -176.67724 | 29302 ft | 484 kts | 71° |
| 2026-05-04 04:10 | -28.89687 | -176.60439 | 29366 ft | 483 kts | 70° |
| 2026-05-04 04:10 | -28.88612 | -176.56816 | 29469 ft | 482 kts | 70° |
| 2026-05-04 04:10 | -28.87550 | -176.53226 | 29594 ft | 486 kts | 70° |
| 2026-05-04 04:11 | -28.86461 | -176.49574 | 29729 ft | 484 kts | 70° |
| 2026-05-04 04:11 | -28.85378 | -176.45934 | 29862 ft | 485 kts | 70° |
| 2026-05-04 04:11 | -28.84289 | -176.42288 | 29993 ft | 485 kts | 70° |
| 2026-05-04 04:11 | -28.83195 | -176.38632 | 30128 ft | 485 kts | 70° |
| 2026-05-04 04:12 | -28.82107 | -176.34993 | 30258 ft | 486 kts | 70° |
| 2026-05-04 04:12 | -28.81013 | -176.31337 | 30384 ft | 487 kts | 70° |
| 2026-05-04 04:12 | -28.79918 | -176.27674 | 30496 ft | 486 kts | 70° |
| 2026-05-04 04:12 | -28.78828 | -176.24017 | 30605 ft | 488 kts | 70° |
| 2026-05-04 04:13 | -28.77724 | -176.20347 | 30732 ft | 488 kts | 70° |
| 2026-05-04 04:13 | -28.76635 | -176.16693 | 30842 ft | 487 kts | 70° |
| 2026-05-04 04:13 | -28.75551 | -176.13074 | 30959 ft | 491 kts | 70° |
| 2026-05-04 04:13 | -28.74445 | -176.09394 | 31086 ft | 490 kts | 70° |
| 2026-05-04 04:14 | -28.73335 | -176.05717 | 31201 ft | 490 kts | 70° |
| 2026-05-04 04:14 | -28.72226 | -176.02035 | 31320 ft | 491 kts | 70° |
| 2026-05-04 04:14 | -28.71121 | -175.98354 | 31437 ft | 491 kts | 70° |
| 2026-05-04 04:14 | -28.70005 | -175.94674 | 31558 ft | 490 kts | 70° |
| 2026-05-04 04:15 | -28.68885 | -175.90992 | 31675 ft | 492 kts | 70° |
| 2026-05-04 04:15 | -28.67771 | -175.87313 | 31795 ft | 491 kts | 70° |
| 2026-05-04 04:15 | -28.66673 | -175.83639 | 31918 ft | 491 kts | 70° |
| 2026-05-04 04:15 | -28.65566 | -175.79952 | 32042 ft | 492 kts | 70° |
| 2026-05-04 04:16 | -28.64453 | -175.76278 | 32164 ft | 490 kts | 70° |
| 2026-05-04 04:16 | -28.63333 | -175.72601 | 32283 ft | 491 kts | 70° |
| 2026-05-04 04:16 | -28.62211 | -175.68933 | 32409 ft | 491 kts | 70° |
| 2026-05-04 04:16 | -28.61090 | -175.65263 | 32535 ft | 491 kts | 70° |
| 2026-05-04 04:17 | -28.59975 | -175.61590 | 32658 ft | 492 kts | 70° |
| 2026-05-04 04:17 | -28.58856 | -175.57917 | 32775 ft | 490 kts | 70° |
| 2026-05-04 04:17 | -28.57739 | -175.54259 | 32905 ft | 488 kts | 69° |
| 2026-05-04 04:17 | -28.56621 | -175.50608 | 33038 ft | 489 kts | 69° |
| 2026-05-04 04:18 | -28.55516 | -175.47000 | 33164 ft | 487 kts | 69° |
| 2026-05-04 04:18 | -28.54400 | -175.43359 | 33290 ft | 488 kts | 69° |
| 2026-05-04 04:18 | -28.52141 | -175.36054 | 33305 ft | 488 kts | 69° |
| 2026-05-04 04:19 | -28.49875 | -175.28759 | 33287 ft | 489 kts | 69° |
| 2026-05-04 04:19 | -28.47625 | -175.21470 | 33280 ft | 489 kts | 69° |
| 2026-05-04 04:20 | -28.45373 | -175.14172 | 33275 ft | 488 kts | 69° |
| 2026-05-04 04:20 | -28.43112 | -175.06880 | 33262 ft | 490 kts | 69° |
| 2026-05-04 04:21 | -28.40838 | -174.99587 | 33269 ft | 490 kts | 69° |
| 2026-05-04 04:21 | -28.38579 | -174.92286 | 33273 ft | 490 kts | 69° |
| 2026-05-04 04:22 | -28.36321 | -174.84982 | 33273 ft | 490 kts | 69° |
| 2026-05-04 04:22 | -28.34046 | -174.77684 | 33270 ft | 490 kts | 69° |
| 2026-05-04 04:23 | -28.31752 | -174.70400 | 33269 ft | 490 kts | 68° |
| 2026-05-04 04:23 | -28.29440 | -174.63103 | 33266 ft | 493 kts | 69° |
| 2026-05-04 04:24 | -28.27141 | -174.55780 | 33271 ft | 493 kts | 68° |
| 2026-05-04 04:24 | -28.24835 | -174.48496 | 33259 ft | 493 kts | 68° |
| 2026-05-04 04:25 | -28.22520 | -174.41176 | 33262 ft | 493 kts | 68° |
| 2026-05-04 04:25 | -28.20208 | -174.33856 | 33269 ft | 493 kts | 68° |
| 2026-05-04 04:26 | -28.17889 | -174.26529 | 33254 ft | 496 kts | 68° |
| 2026-05-04 04:26 | -28.15543 | -174.19164 | 33258 ft | 497 kts | 68° |
| 2026-05-04 04:27 | -28.13178 | -174.11781 | 33259 ft | 497 kts | 68° |
| 2026-05-04 04:27 | -28.10818 | -174.04411 | 33257 ft | 497 kts | 68° |
| 2026-05-04 04:28 | -28.08462 | -173.97050 | 33257 ft | 497 kts | 68° |
| 2026-05-04 04:28 | -28.06106 | -173.89681 | 33252 ft | 499 kts | 67° |
| 2026-05-04 04:29 | -28.03728 | -173.82280 | 33252 ft | 501 kts | 67° |
| 2026-05-04 04:29 | -28.01344 | -173.74867 | 33247 ft | 501 kts | 67° |
| 2026-05-04 04:30 | -27.98956 | -173.67473 | 33249 ft | 501 kts | 67° |
| 2026-05-04 04:30 | -27.96561 | -173.60065 | 33250 ft | 501 kts | 67° |
| 2026-05-04 04:31 | -27.94160 | -173.52656 | 33250 ft | 501 kts | 67° |
| 2026-05-04 04:31 | -27.91741 | -173.45221 | 33242 ft | 504 kts | 67° |
| 2026-05-04 04:32 | -27.89314 | -173.37763 | 33236 ft | 505 kts | 66° |
| 2026-05-04 04:32 | -27.86883 | -173.30296 | 33241 ft | 506 kts | 66° |
| 2026-05-04 04:33 | -27.84456 | -173.22882 | 33241 ft | 506 kts | 66° |
| 2026-05-04 04:33 | -27.82018 | -173.15424 | 33243 ft | 506 kts | 66° |
| 2026-05-04 04:34 | -27.79551 | -173.07946 | 33243 ft | 509 kts | 66° |
| 2026-05-04 04:34 | -27.77091 | -173.00442 | 33240 ft | 509 kts | 66° |
| 2026-05-04 04:35 | -27.74618 | -172.92965 | 33240 ft | 509 kts | 66° |
| 2026-05-04 04:35 | -27.72149 | -172.85477 | 33239 ft | 508 kts | 66° |
| 2026-05-04 04:36 | -27.70086 | -172.79262 | 33241 ft | 508 kts | 66° |
| 2026-05-04 04:36 | -27.67192 | -172.70532 | 33238 ft | 512 kts | 66° |
| 2026-05-04 04:37 | -27.62611 | -172.56730 | 33232 ft | 512 kts | 65° |
| 2026-05-04 04:38 | -27.60102 | -172.49199 | 33230 ft | 512 kts | 65° |
| 2026-05-04 04:38 | -27.57586 | -172.41681 | 33230 ft | 512 kts | 65° |
| 2026-05-04 04:39 | -27.55051 | -172.34107 | 33234 ft | 520 kts | 65° |
| 2026-05-04 04:39 | -27.52479 | -172.26476 | 33228 ft | 520 kts | 65° |
| 2026-05-04 04:40 | -27.49915 | -172.18846 | 33233 ft | 521 kts | 65° |
| 2026-05-04 04:40 | -27.47344 | -172.11223 | 33226 ft | 520 kts | 65° |
| 2026-05-04 04:41 | -27.44771 | -172.03602 | 33224 ft | 521 kts | 65° |
| 2026-05-04 04:41 | -27.42195 | -171.95976 | 33224 ft | 521 kts | 65° |
| 2026-05-04 04:42 | -27.39635 | -171.88414 | 33227 ft | 521 kts | 65° |
| 2026-05-04 04:42 | -27.37041 | -171.80795 | 33227 ft | 521 kts | 64° |
| 2026-05-04 04:43 | -27.34447 | -171.73185 | 33220 ft | 521 kts | 65° |
| 2026-05-04 04:43 | -27.31853 | -171.65578 | 33221 ft | 521 kts | 64° |
| 2026-05-04 04:44 | -27.29238 | -171.57950 | 33221 ft | 523 kts | 64° |
| 2026-05-04 04:44 | -27.26627 | -171.50311 | 33218 ft | 523 kts | 64° |
| 2026-05-04 04:45 | -27.24007 | -171.42683 | 33221 ft | 523 kts | 64° |
| 2026-05-04 04:47 | -27.14837 | -171.16028 | 33212 ft | 523 kts | 64° |
| 2026-05-04 04:47 | -27.12188 | -171.08404 | 33213 ft | 523 kts | 64° |
| 2026-05-04 04:48 | -27.09545 | -171.00800 | 33215 ft | 523 kts | 64° |
| 2026-05-04 04:49 | -27.02915 | -170.81776 | 33204 ft | 523 kts | 64° |
| 2026-05-04 04:49 | -27.00266 | -170.74182 | 33203 ft | 523 kts | 64° |
| 2026-05-04 04:50 | -26.97606 | -170.66598 | 33202 ft | 523 kts | 64° |
| 2026-05-04 04:50 | -26.94938 | -170.59009 | 33203 ft | 523 kts | 64° |
| 2026-05-04 04:51 | -26.92276 | -170.51420 | 33205 ft | 523 kts | 64° |
| 2026-05-04 04:51 | -26.89601 | -170.43838 | 33199 ft | 523 kts | 64° |
| 2026-05-04 04:52 | -26.86915 | -170.36254 | 33198 ft | 523 kts | 64° |
| 2026-05-04 04:52 | -26.84233 | -170.28680 | 33198 ft | 523 kts | 64° |
| 2026-05-04 04:53 | -26.81575 | -170.21149 | 33190 ft | 522 kts | 63° |
| 2026-05-04 04:53 | -26.78885 | -170.13595 | 33197 ft | 526 kts | 63° |
| 2026-05-04 04:54 | -26.76156 | -170.05987 | 33194 ft | 527 kts | 63° |
| 2026-05-04 04:54 | -26.73441 | -169.98379 | 33191 ft | 527 kts | 63° |
| 2026-05-04 04:55 | -26.70726 | -169.90804 | 33188 ft | 527 kts | 63° |
| 2026-05-04 04:55 | -26.68038 | -169.83273 | 33190 ft | 526 kts | 63° |
| 2026-05-04 04:56 | -26.65309 | -169.75696 | 33191 ft | 528 kts | 62° |
| 2026-05-04 04:56 | -26.62570 | -169.68076 | 33186 ft | 528 kts | 62° |
| 2026-05-04 04:57 | -26.59829 | -169.60463 | 33185 ft | 528 kts | 62° |
| 2026-05-04 04:57 | -26.57080 | -169.52852 | 33182 ft | 528 kts | 62° |
| 2026-05-04 04:58 | -26.54330 | -169.45243 | 33181 ft | 528 kts | 62° |
| 2026-05-04 04:58 | -26.51574 | -169.37628 | 33179 ft | 529 kts | 62° |
| 2026-05-04 04:59 | -26.48806 | -169.30011 | 33177 ft | 530 kts | 62° |
| 2026-05-04 04:59 | -26.46048 | -169.22439 | 33143 ft | 530 kts | 62° |
| 2026-05-04 05:00 | -26.43306 | -169.14882 | 33163 ft | 523 kts | 62° |
| 2026-05-04 05:01 | -26.39176 | -169.03591 | 33180 ft | 524 kts | 62° |
| 2026-05-04 05:01 | -26.36409 | -168.96068 | 33174 ft | 525 kts | 62° |
| 2026-05-04 05:02 | -26.33641 | -168.88526 | 33173 ft | 525 kts | 62° |
| 2026-05-04 05:02 | -26.30891 | -168.81042 | 33171 ft | 525 kts | 62° |
| 2026-05-04 05:03 | -26.28123 | -168.73505 | 33160 ft | 525 kts | 62° |
| 2026-05-04 05:04 | -26.22559 | -168.58449 | 33163 ft | 526 kts | 62° |
| 2026-05-04 05:04 | -26.19774 | -168.50909 | 33163 ft | 526 kts | 62° |
| 2026-05-04 05:06 | -26.08579 | -168.20796 | 33157 ft | 526 kts | 62° |
| 2026-05-04 05:07 | -26.05782 | -168.13299 | 33143 ft | 520 kts | 62° |
| 2026-05-04 05:07 | -26.03018 | -168.05911 | 33162 ft | 520 kts | 62° |
| 2026-05-04 05:09 | -25.90375 | -167.72383 | 33139 ft | 523 kts | 61° |
| 2026-05-04 05:10 | -25.87552 | -167.64932 | 33153 ft | 523 kts | 61° |
| 2026-05-04 05:10 | -25.84719 | -167.57470 | 33142 ft | 524 kts | 61° |
| 2026-05-04 05:11 | -25.81885 | -167.49999 | 33133 ft | 526 kts | 61° |
| 2026-05-04 05:11 | -25.79047 | -167.42525 | 33138 ft | 526 kts | 61° |
| 2026-05-04 05:12 | -25.76213 | -167.35090 | 33142 ft | 526 kts | 61° |
| 2026-05-04 05:12 | -25.73341 | -167.27569 | 33132 ft | 526 kts | 61° |
| 2026-05-04 05:13 | -25.70505 | -167.20147 | 33132 ft | 527 kts | 61° |
| 2026-05-04 05:13 | -25.67639 | -167.12656 | 33123 ft | 526 kts | 61° |
| 2026-05-04 05:14 | -25.64770 | -167.05197 | 33132 ft | 525 kts | 61° |
| 2026-05-04 05:14 | -25.61887 | -166.97757 | 33133 ft | 525 kts | 61° |
| 2026-05-04 05:15 | -25.59018 | -166.90308 | 33134 ft | 525 kts | 61° |
| 2026-05-04 05:15 | -25.56139 | -166.82849 | 33135 ft | 526 kts | 61° |
| 2026-05-04 05:16 | -25.53270 | -166.75435 | 33137 ft | 526 kts | 61° |
| 2026-05-04 05:16 | -25.50383 | -166.67980 | 33130 ft | 526 kts | 61° |
| 2026-05-04 05:17 | -25.47991 | -166.61785 | 33131 ft | 526 kts | 61° |
| 2026-05-04 05:17 | -25.45103 | -166.54328 | 33130 ft | 526 kts | 60° |
| 2026-05-04 05:18 | -25.42189 | -166.46889 | 33128 ft | 527 kts | 61° |
| 2026-05-04 05:18 | -25.39274 | -166.39435 | 33128 ft | 528 kts | 61° |
| 2026-05-04 05:19 | -25.36364 | -166.31970 | 33123 ft | 528 kts | 61° |
| 2026-05-04 05:19 | -25.33462 | -166.24548 | 33123 ft | 528 kts | 61° |
| 2026-05-04 05:20 | -25.30529 | -166.17047 | 33122 ft | 528 kts | 61° |
| 2026-05-04 05:20 | -25.27625 | -166.09650 | 33105 ft | 527 kts | 60° |
| 2026-05-04 05:21 | -25.24703 | -166.02226 | 33121 ft | 526 kts | 60° |
| 2026-05-04 05:21 | -25.21772 | -165.94814 | 33121 ft | 526 kts | 60° |
| 2026-05-04 05:22 | -25.18843 | -165.87394 | 33117 ft | 527 kts | 60° |
| 2026-05-04 05:22 | -25.15924 | -165.79973 | 33117 ft | 527 kts | 60° |
| 2026-05-04 05:23 | -25.12995 | -165.72565 | 33111 ft | 526 kts | 60° |
| 2026-05-04 05:23 | -25.10049 | -165.65176 | 33112 ft | 526 kts | 60° |
| 2026-05-04 05:24 | -25.07103 | -165.57782 | 33112 ft | 526 kts | 60° |
| 2026-05-04 05:24 | -25.04149 | -165.50394 | 33110 ft | 526 kts | 60° |
| 2026-05-04 05:25 | -25.01696 | -165.44241 | 33107 ft | 526 kts | 60° |
| 2026-05-04 05:25 | -25.00948 | -165.42370 | 33110 ft | 526 kts | 60° |